createdAt,value
2019-02-22T00:01:47.890Z,57.78
2019-02-22T00:04:17.429Z,62.23
2019-02-22T00:06:48.018Z,52.98
2019-02-22T00:09:17.560Z,52.85
2019-02-22T00:11:47.113Z,56.02
2019-02-22T00:14:16.664Z,53.70
2019-02-22T00:16:46.213Z,51.68
2019-02-22T00:19:15.758Z,54.35
2019-02-22T00:21:45.298Z,54.98
2019-02-22T00:24:14.887Z,51.23
2019-02-22T00:26:44.444Z,51.40
2019-02-22T00:29:14.000Z,50.80
2019-02-22T00:31:43.546Z,56.50
2019-02-22T00:34:13.128Z,52.48
2019-02-22T00:36:42.694Z,55.73
2019-02-22T00:39:12.250Z,50.95
2019-02-22T00:41:41.814Z,50.55
2019-02-22T00:44:11.367Z,48.50
2019-02-22T00:46:40.910Z,50.80
2019-02-22T00:49:10.506Z,53.77
2019-02-22T00:51:40.050Z,51.37
2019-02-22T00:54:09.599Z,52.15
2019-02-22T00:56:39.142Z,51.00
2019-02-22T00:59:08.850Z,47.98
2019-02-22T01:01:38.441Z,48.50
2019-02-22T01:04:07.989Z,48.68
2019-02-22T01:06:37.873Z,48.42
2019-02-22T01:09:07.698Z,51.37
2019-02-22T01:11:37.248Z,49.45
2019-02-22T01:14:06.825Z,46.35
2019-02-22T01:16:36.370Z,46.28
2019-02-22T01:19:05.912Z,45.90
2019-02-22T01:21:35.486Z,45.85
2019-02-22T01:24:05.031Z,48.23
2019-02-22T01:26:34.594Z,46.18
2019-02-22T01:29:04.139Z,48.38
2019-02-22T01:31:34.697Z,48.38
2019-02-22T01:34:04.275Z,45.25
2019-02-22T01:36:33.819Z,55.05
2019-02-22T01:39:05.002Z,44.17
2019-02-22T01:41:36.099Z,46.95
2019-02-22T01:44:05.697Z,49.88
2019-02-22T01:46:35.246Z,46.42
2019-02-22T01:49:04.830Z,43.75
2019-02-22T01:51:34.375Z,43.00
2019-02-22T01:54:03.923Z,42.25
2019-02-22T01:56:33.471Z,41.50
2019-02-22T01:59:03.027Z,41.55
2019-02-22T02:01:32.570Z,38.40
2019-02-22T02:04:02.122Z,38.75
2019-02-22T02:06:31.749Z,37.42
2019-02-22T02:09:01.301Z,36.80
2019-02-22T02:11:32.428Z,40.73
2019-02-22T02:14:01.983Z,39.53
2019-02-22T02:16:31.534Z,34.40
2019-02-22T02:19:01.086Z,34.88
2019-02-22T02:21:30.634Z,37.15
2019-02-22T02:24:00.230Z,36.95
2019-02-22T02:26:29.774Z,33.93
2019-02-22T02:28:59.326Z,31.70
2019-02-22T02:31:28.874Z,32.45
2019-02-22T02:33:58.420Z,35.45
2019-02-22T02:36:28.005Z,31.52
2019-02-22T02:38:57.558Z,29.85
2019-02-22T02:41:27.113Z,28.47
2019-02-22T02:43:56.666Z,27.80
2019-02-22T02:46:26.206Z,27.75
2019-02-22T02:48:55.794Z,30.72
2019-02-22T02:51:25.334Z,32.15
2019-02-22T02:53:54.879Z,29.75
2019-02-22T02:56:24.422Z,27.50
2019-02-22T02:58:54.062Z,27.97
2019-02-22T03:01:23.657Z,27.00
2019-02-22T03:03:53.197Z,26.17
2019-02-22T03:06:24.352Z,25.95
2019-02-22T03:08:53.892Z,25.47
2019-02-22T03:11:23.439Z,18.27
2019-02-22T03:13:53.003Z,13.25
2019-02-22T03:16:22.554Z,10.45
2019-02-22T03:18:52.153Z,9.33
2019-02-22T03:21:21.705Z,11.80
2019-02-22T03:23:51.274Z,24.87
2019-02-22T03:26:21.081Z,15.00
2019-02-22T03:28:50.627Z,16.70
2019-02-22T03:31:20.215Z,8.97
2019-02-22T03:33:50.532Z,6.25
2019-02-22T03:36:20.129Z,5.70
2019-02-22T03:38:49.667Z,9.98
2019-02-22T03:41:19.202Z,20.92
2019-02-22T03:43:48.770Z,14.13
2019-02-22T03:46:18.317Z,14.38
2019-02-22T03:48:47.907Z,23.05
2019-02-22T03:51:17.435Z,6.65
2019-02-22T03:53:48.120Z,9.30
2019-02-22T03:56:17.583Z,7.28
2019-02-22T03:58:47.122Z,9.70
2019-02-22T04:01:16.662Z,8.97
2019-02-22T04:03:46.222Z,11.08
2019-02-22T04:06:15.750Z,7.55
2019-02-22T04:08:45.315Z,8.80
2019-02-22T04:11:14.887Z,8.38
2019-02-22T04:13:44.438Z,8.80
2019-02-22T04:16:13.978Z,8.08
2019-02-22T04:18:43.534Z,6.87
2019-02-22T04:21:13.085Z,8.68
2019-02-22T04:23:42.650Z,8.13
2019-02-22T04:26:12.184Z,11.27
2019-02-22T04:28:41.721Z,9.15
2019-02-22T04:31:12.277Z,16.10
2019-02-22T04:33:41.819Z,6.90
2019-02-22T04:36:12.203Z,6.40
2019-02-22T04:38:41.758Z,12.00
2019-02-22T04:41:11.293Z,8.83
2019-02-22T04:43:40.829Z,8.13
2019-02-22T04:46:10.367Z,8.98
2019-02-22T04:48:39.956Z,9.95
2019-02-22T04:51:09.503Z,7.62
2019-02-22T04:53:39.048Z,8.33
2019-02-22T04:56:08.595Z,7.90
2019-02-22T04:58:38.146Z,8.55
2019-02-22T05:01:07.727Z,12.23
2019-02-22T05:03:37.273Z,13.40
2019-02-22T05:06:06.813Z,8.80
2019-02-22T05:08:37.734Z,8.15
2019-02-22T05:11:07.269Z,8.13
2019-02-22T05:13:36.803Z,9.55
2019-02-22T05:16:06.381Z,9.73
2019-02-22T05:18:35.907Z,10.05
2019-02-22T05:21:05.454Z,10.38
2019-02-22T05:23:35.033Z,10.90
2019-02-22T05:26:04.579Z,11.10
2019-02-22T05:28:34.127Z,13.10
2019-02-22T05:31:03.715Z,13.15
2019-02-22T05:33:33.289Z,13.75
2019-02-22T05:36:02.839Z,14.65
2019-02-22T05:38:32.421Z,15.18
2019-02-22T05:41:01.970Z,14.73
2019-02-22T05:43:31.552Z,17.95
2019-02-22T05:46:01.116Z,16.50
2019-02-22T05:48:30.647Z,23.52
2019-02-22T05:51:00.247Z,16.95
2019-02-22T05:53:29.791Z,16.50
2019-02-22T05:55:59.336Z,16.80
2019-02-22T05:58:28.900Z,18.07
2019-02-22T06:00:58.442Z,15.48
2019-02-22T06:03:29.997Z,12.25
2019-02-22T06:05:59.541Z,10.75
2019-02-22T06:08:29.369Z,11.65
2019-02-22T06:10:58.971Z,12.07
2019-02-22T06:13:28.522Z,12.77
2019-02-22T06:15:58.107Z,13.50
2019-02-22T06:18:27.646Z,19.15
2019-02-22T06:20:57.193Z,12.88
2019-02-22T06:23:26.739Z,11.68
2019-02-22T06:25:56.279Z,13.45
2019-02-22T06:28:25.970Z,11.22
2019-02-22T06:30:55.519Z,11.60
2019-02-22T06:33:25.061Z,11.53
2019-02-22T06:35:54.610Z,11.08
2019-02-22T06:38:24.146Z,11.55
2019-02-22T06:40:53.727Z,11.50
2019-02-22T06:43:23.278Z,10.80
2019-02-22T06:45:52.867Z,10.53
2019-02-22T06:48:22.801Z,10.18
2019-02-22T06:50:52.351Z,10.32
2019-02-22T06:53:21.890Z,9.78
2019-02-22T06:55:51.438Z,11.10
2019-02-22T06:58:20.990Z,8.70
2019-02-22T07:00:50.544Z,9.45
2019-02-22T07:03:20.129Z,7.83
2019-02-22T07:05:49.678Z,8.48
2019-02-22T07:08:20.290Z,8.70
2019-02-22T07:11:07.550Z,9.05
2019-02-22T07:13:37.132Z,11.18
2019-02-22T07:16:09.430Z,11.38
2019-02-22T07:18:39.133Z,11.40
2019-02-22T07:21:08.682Z,11.12
2019-02-22T07:23:38.239Z,12.55
2019-02-22T07:26:08.675Z,11.08
2019-02-22T07:28:38.219Z,12.80
2019-02-22T07:31:07.814Z,14.45
2019-02-22T07:33:37.358Z,13.80
2019-02-22T07:36:06.906Z,14.00
2019-02-22T07:38:36.452Z,13.93
2019-02-22T07:41:06.766Z,11.93
2019-02-22T07:43:36.354Z,11.78
2019-02-22T07:46:05.893Z,12.07
2019-02-22T07:48:35.474Z,13.80
2019-02-22T07:51:05.011Z,10.57
2019-02-22T07:53:34.549Z,11.57
2019-02-22T07:56:04.097Z,19.70
2019-02-22T07:58:34.010Z,18.60
2019-02-22T08:01:03.598Z,40.00
2019-02-22T08:03:33.144Z,11.80
2019-02-22T08:06:02.690Z,27.82
2019-02-22T08:08:32.243Z,25.95
2019-02-22T08:11:01.790Z,17.40
2019-02-22T08:13:31.385Z,18.65
2019-02-22T08:16:00.935Z,15.45
2019-02-22T08:18:30.479Z,18.85
2019-02-22T08:21:00.080Z,18.35
2019-02-22T08:23:29.623Z,16.27
2019-02-22T08:25:59.165Z,11.45
2019-02-22T08:28:28.742Z,10.95
2019-02-22T08:30:59.282Z,11.85
2019-02-22T08:33:28.823Z,7.72
2019-02-22T08:35:58.407Z,8.47
2019-02-22T08:38:27.981Z,6.80
2019-02-22T08:40:57.501Z,8.43
2019-02-22T08:43:31.566Z,7.47
2019-02-22T08:45:58.239Z,6.50
2019-02-22T08:48:27.825Z,9.73
2019-02-22T08:50:57.370Z,8.78
2019-02-22T08:53:26.935Z,8.20
2019-02-22T08:55:56.479Z,13.35
2019-02-22T08:58:26.010Z,7.05
2019-02-22T09:00:55.596Z,11.33
2019-02-22T09:03:25.226Z,7.17
2019-02-22T09:05:54.778Z,8.65
2019-02-22T09:08:24.334Z,9.28
2019-02-22T09:11:00.475Z,11.80
2019-02-22T09:13:25.570Z,8.10
2019-02-22T09:15:55.118Z,7.33
2019-02-22T09:18:24.986Z,8.40
2019-02-22T09:20:54.451Z,8.87
2019-02-22T09:23:24.049Z,9.80
2019-02-22T09:25:53.573Z,11.03
2019-02-22T09:28:23.118Z,8.90
2019-02-22T09:30:52.651Z,9.15
2019-02-22T09:33:22.185Z,10.53
2019-02-22T09:35:51.774Z,9.18
2019-02-22T09:38:21.317Z,10.15
2019-02-22T09:40:50.911Z,9.65
2019-02-22T09:43:20.454Z,12.18
2019-02-22T09:45:49.994Z,16.17
2019-02-22T09:48:19.546Z,22.20
2019-02-22T09:50:49.087Z,15.33
2019-02-22T09:53:18.675Z,25.27
2019-02-22T09:55:48.219Z,12.35
2019-02-22T09:58:18.088Z,10.75
2019-02-22T10:00:47.770Z,9.65
2019-02-22T10:03:17.326Z,7.33
2019-02-22T10:05:46.874Z,11.22
2019-02-22T10:08:16.410Z,9.53
2019-02-22T10:10:45.976Z,7.37
2019-02-22T10:13:15.515Z,10.23
2019-02-22T10:15:45.056Z,8.83
2019-02-22T10:18:14.607Z,10.90
2019-02-22T10:20:44.143Z,11.60
2019-02-22T10:23:13.735Z,11.95
2019-02-22T10:25:43.294Z,7.47
2019-02-22T10:28:17.615Z,7.97
2019-02-22T10:30:44.045Z,7.65
2019-02-22T10:33:13.574Z,6.97
2019-02-22T10:35:43.113Z,8.95
2019-02-22T10:38:12.701Z,18.33
2019-02-22T10:40:42.246Z,8.50
2019-02-22T10:43:12.801Z,8.05
2019-02-22T10:45:43.271Z,7.30
2019-02-22T10:48:12.809Z,7.17
2019-02-22T10:50:42.339Z,8.18
2019-02-22T10:53:11.894Z,11.55
2019-02-22T10:55:41.451Z,14.00
2019-02-22T10:58:10.997Z,11.57
2019-02-22T11:00:40.529Z,15.20
2019-02-22T11:03:10.239Z,15.18
2019-02-22T11:05:39.778Z,9.55
2019-02-22T11:08:09.315Z,6.87
2019-02-22T11:10:38.858Z,5.97
2019-02-22T11:13:08.395Z,8.95
2019-02-22T11:15:37.977Z,7.47
2019-02-22T11:18:07.526Z,8.43
2019-02-22T11:20:37.091Z,6.80
2019-02-22T11:23:06.641Z,7.22
2019-02-22T11:25:36.183Z,7.00
2019-02-22T11:28:07.129Z,8.65
2019-02-22T11:30:36.659Z,7.45
2019-02-22T11:33:06.210Z,11.80
2019-02-22T11:35:35.810Z,9.80
2019-02-22T11:38:05.349Z,16.12
2019-02-22T11:40:34.907Z,10.10
2019-02-22T11:43:04.513Z,11.85
2019-02-22T11:45:34.041Z,11.80
2019-02-22T11:48:09.101Z,8.15
2019-02-22T11:50:34.759Z,6.92
2019-02-22T11:53:04.321Z,8.00
2019-02-22T11:55:34.869Z,9.15
2019-02-22T11:58:04.458Z,8.15
2019-02-22T12:00:34.025Z,12.90
2019-02-22T12:03:15.811Z,7.70
2019-02-22T12:05:34.737Z,12.00
2019-02-22T12:08:04.321Z,11.93
2019-02-22T12:10:33.855Z,9.03
2019-02-22T12:13:03.395Z,13.60
2019-02-22T12:15:32.955Z,9.28
2019-02-22T12:18:02.484Z,12.80
2019-02-22T12:20:32.083Z,12.60
2019-02-22T12:23:01.626Z,10.03
2019-02-22T12:25:31.170Z,9.23
2019-02-22T12:28:00.723Z,12.43
2019-02-22T12:30:30.258Z,10.13
2019-02-22T12:32:59.843Z,9.63
2019-02-22T12:35:29.666Z,9.85
2019-02-22T12:37:59.206Z,9.65
2019-02-22T12:40:28.747Z,9.00
2019-02-22T12:42:58.294Z,9.83
2019-02-22T12:45:27.841Z,11.70
2019-02-22T12:47:57.382Z,9.80
2019-02-22T12:50:26.966Z,7.22
2019-02-22T12:52:56.530Z,11.68
2019-02-22T12:55:26.062Z,7.42
2019-02-22T12:57:55.618Z,8.58
2019-02-22T13:00:25.159Z,8.60
2019-02-22T13:03:02.100Z,9.30
2019-02-22T13:05:28.245Z,8.55
2019-02-22T13:07:57.889Z,7.75
2019-02-22T13:10:27.511Z,10.38
2019-02-22T13:12:57.058Z,6.87
2019-02-22T13:15:26.600Z,7.58
2019-02-22T13:17:56.574Z,8.10
2019-02-22T13:20:26.206Z,8.10
2019-02-22T13:22:55.765Z,7.95
2019-02-22T13:25:25.337Z,8.45
2019-02-22T13:27:54.877Z,9.63
2019-02-22T13:30:24.420Z,9.15
2019-02-22T13:32:54.110Z,10.55
2019-02-22T13:35:23.646Z,9.08
2019-02-22T13:37:53.189Z,9.10
2019-02-22T13:40:22.795Z,9.08
2019-02-22T13:42:52.341Z,8.45
2019-02-22T13:45:26.761Z,7.20
2019-02-22T13:47:53.078Z,6.83
2019-02-22T13:50:23.390Z,8.13
2019-02-22T13:52:53.003Z,8.10
2019-02-22T13:55:22.546Z,6.83
2019-02-22T13:57:52.085Z,7.77
2019-02-22T14:00:21.641Z,12.00
2019-02-22T14:02:51.181Z,8.68
2019-02-22T14:05:20.757Z,7.60
2019-02-22T14:07:54.471Z,15.63
2019-02-22T14:10:24.870Z,9.15
2019-02-22T14:12:54.429Z,7.80
2019-02-22T14:15:23.983Z,9.30
2019-02-22T14:17:53.645Z,7.50
2019-02-22T14:20:23.191Z,9.98
2019-02-22T14:22:52.737Z,15.20
2019-02-22T14:25:22.279Z,12.70
2019-02-22T14:27:51.874Z,10.23
2019-02-22T14:30:21.416Z,7.00
2019-02-22T14:32:50.966Z,6.72
2019-02-22T14:35:20.514Z,6.65
2019-02-22T18:58:50.228Z,619.97
2019-02-22T19:01:20.466Z,257.98
2019-02-22T19:03:50.062Z,588.80
2019-02-22T19:06:19.630Z,294.60
2019-02-22T19:08:49.193Z,704.85
2019-02-22T19:11:18.754Z,302.50
2019-02-22T19:13:48.309Z,147.00
2019-02-22T19:16:17.912Z,325.75
2019-02-22T19:18:47.478Z,212.60
2019-02-22T19:21:17.040Z,385.27
2019-02-22T19:23:46.683Z,269.25
2019-02-22T19:26:18.066Z,257.75
2019-02-22T19:28:48.774Z,159.05
2019-02-22T19:31:18.331Z,150.90
2019-02-22T19:33:49.811Z,185.50
2019-02-22T19:36:19.109Z,183.10
2019-02-22T19:38:48.870Z,310.00
2019-02-22T19:41:18.446Z,168.55
2019-02-22T19:43:48.383Z,230.67
2019-02-22T19:46:17.937Z,258.90
2019-02-22T19:48:48.051Z,307.70
2019-02-22T19:51:17.923Z,270.27
2019-02-22T19:53:50.642Z,616.77
2019-02-22T19:56:20.265Z,248.80
2019-02-22T19:58:50.841Z,144.75
2019-02-22T20:01:20.431Z,70.70
2019-02-22T20:03:49.995Z,62.75
2019-02-22T20:06:19.701Z,134.32
2019-02-22T20:08:50.254Z,320.63
2019-02-22T20:11:19.868Z,447.80
2019-02-22T20:13:49.788Z,210.27
2019-02-22T20:16:19.309Z,180.87
2019-02-22T20:18:48.877Z,210.53
2019-02-22T20:21:18.451Z,233.85
2019-02-22T20:23:49.066Z,257.05
2019-02-22T20:26:19.938Z,94.77
2019-02-22T20:28:49.526Z,46.30
2019-02-22T20:31:20.638Z,62.53
2019-02-22T20:33:50.478Z,183.25
2019-02-22T20:36:28.022Z,270.33
2019-02-22T20:38:51.314Z,43.83
2019-02-22T20:41:20.855Z,29.72
2019-02-22T20:43:50.635Z,84.20
2019-02-22T20:46:20.193Z,98.00
2019-02-22T20:49:00.281Z,162.85
2019-02-22T20:51:20.942Z,150.70
2019-02-22T20:53:50.529Z,125.67
2019-02-22T20:56:22.149Z,97.67
2019-02-22T20:58:51.814Z,60.12
2019-02-22T21:01:21.416Z,105.40
2019-02-22T21:03:50.978Z,37.08
2019-02-22T21:06:20.526Z,88.30
2019-02-22T21:08:50.081Z,54.15
2019-02-22T21:11:19.641Z,59.03
2019-02-22T21:13:49.234Z,64.37
2019-02-22T21:16:18.779Z,73.12
2019-02-22T21:18:48.330Z,74.30
2019-02-22T21:21:17.884Z,43.05
2019-02-22T21:23:47.444Z,42.62
2019-02-22T21:26:19.344Z,44.23
2019-02-22T21:28:50.453Z,46.18
2019-02-22T21:31:21.356Z,27.95
2019-02-22T21:33:50.918Z,28.62
2019-02-22T21:36:20.484Z,139.85
2019-02-22T21:38:50.030Z,52.57
2019-02-22T21:41:19.604Z,48.92
2019-02-22T21:43:49.201Z,33.35
2019-02-22T21:46:18.754Z,23.57
2019-02-22T21:48:49.014Z,24.92
2019-02-22T21:51:19.528Z,69.70
2019-02-22T21:53:49.121Z,53.40
2019-02-22T21:56:18.671Z,64.15
2019-02-22T21:58:48.924Z,57.55
2019-02-22T22:01:18.979Z,50.17
2019-02-22T22:03:51.142Z,36.58
2019-02-22T22:06:19.749Z,45.35
2019-02-22T22:08:49.348Z,41.20
2019-02-22T22:11:18.907Z,52.83
2019-02-22T22:13:48.477Z,33.78
2019-02-22T22:16:19.690Z,55.33
2019-02-22T22:18:49.266Z,99.92
2019-02-22T22:21:19.018Z,92.40
2019-02-22T22:23:48.565Z,37.55
2019-02-22T22:26:18.114Z,87.47
2019-02-22T22:28:47.683Z,108.25
2019-02-22T22:31:17.227Z,81.37
2019-02-22T22:33:46.826Z,77.35
2019-02-22T22:36:16.390Z,62.65
2019-02-22T22:38:46.220Z,70.03
2019-02-22T22:41:15.826Z,91.75
2019-02-22T22:43:45.378Z,94.42
2019-02-22T22:46:14.980Z,69.82
2019-02-22T22:48:50.548Z,103.80
2019-02-22T22:51:15.745Z,40.13
2019-02-22T22:53:46.296Z,34.60
2019-02-22T22:56:15.880Z,19.57
2019-02-22T22:58:45.435Z,23.83
2019-02-22T23:01:15.991Z,19.95
2019-02-22T23:03:47.028Z,20.88
2019-02-22T23:06:16.586Z,16.15
2019-02-22T23:08:46.191Z,17.82
2019-02-22T23:11:15.735Z,20.02
2019-02-22T23:13:45.282Z,17.32
2019-02-22T23:16:14.905Z,17.50
2019-02-22T23:18:44.433Z,17.83
2019-02-22T23:21:13.963Z,20.08
2019-02-22T23:23:43.550Z,19.07
2019-02-22T23:26:13.104Z,19.05
2019-02-22T23:28:42.646Z,23.05
2019-02-22T23:31:12.776Z,17.35
2019-02-22T23:33:42.330Z,33.53
2019-02-22T23:36:11.869Z,24.25
2019-02-22T23:38:41.458Z,40.03
2019-02-22T23:41:11.026Z,67.87
2019-02-22T23:43:40.582Z,66.07
2019-02-22T23:46:10.131Z,64.82
2019-02-22T23:48:39.696Z,56.15
2019-02-22T23:51:09.289Z,29.95
2019-02-22T23:53:38.833Z,22.17
2019-02-22T23:56:08.400Z,43.58
2019-02-22T23:58:37.957Z,100.53
